sensor_id;sensor_type;location;lat;lon;timestamp;P1;durP1;ratioP1;P2;durP2;ratioP2
23676;SDS011;31493;49.058;12.190;2024-03-25T00:01:25;5.80;;;3.90;;
23676;SDS011;31493;49.058;12.190;2024-03-25T00:03:52;5.60;;;3.40;;
23676;SDS011;31493;49.058;12.190;2024-03-25T00:06:19;6.85;;;3.92;;
23676;SDS011;31493;49.058;12.190;2024-03-25T00:08:46;8.05;;;3.97;;
23676;SDS011;31493;49.058;12.190;2024-03-25T00:11:14;8.30;;;4.32;;
23676;SDS011;31493;49.058;12.190;2024-03-25T00:13:41;5.35;;;3.72;;
23676;SDS011;31493;49.058;12.190;2024-03-25T00:16:07;9.10;;;3.80;;
23676;SDS011;31493;49.058;12.190;2024-03-25T00:18:34;6.93;;;3.97;;
23676;SDS011;31493;49.058;12.190;2024-03-25T00:21:00;6.43;;;4.00;;
23676;SDS011;31493;49.058;12.190;2024-03-25T00:23:27;10.50;;;4.00;;
23676;SDS011;31493;49.058;12.190;2024-03-25T00:25:53;5.60;;;3.80;;
23676;SDS011;31493;49.058;12.190;2024-03-25T00:28:21;9.25;;;3.80;;
23676;SDS011;31493;49.058;12.190;2024-03-25T00:30:47;8.38;;;3.70;;
23676;SDS011;31493;49.058;12.190;2024-03-25T00:33:15;6.95;;;4.00;;
23676;SDS011;31493;49.058;12.190;2024-03-25T00:35:42;6.50;;;4.07;;
23676;SDS011;31493;49.058;12.190;2024-03-25T00:38:09;7.85;;;4.05;;
23676;SDS011;31493;49.058;12.190;2024-03-25T00:40:35;6.97;;;3.60;;
23676;SDS011;31493;49.058;12.190;2024-03-25T00:43:02;5.75;;;3.33;;
23676;SDS011;31493;49.058;12.190;2024-03-25T00:45:29;5.93;;;3.15;;
23676;SDS011;31493;49.058;12.190;2024-03-25T00:47:57;8.23;;;4.10;;
23676;SDS011;31493;49.058;12.190;2024-03-25T00:50:25;8.82;;;3.75;;
23676;SDS011;31493;49.058;12.190;2024-03-25T00:52:52;6.32;;;3.55;;
23676;SDS011;31493;49.058;12.190;2024-03-25T00:55:18;6.75;;;3.83;;
23676;SDS011;31493;49.058;12.190;2024-03-25T00:57:45;7.72;;;3.80;;
23676;SDS011;31493;49.058;12.190;2024-03-25T01:00:11;8.13;;;3.90;;
23676;SDS011;31493;49.058;12.190;2024-03-25T01:02:42;5.85;;;3.28;;
23676;SDS011;31493;49.058;12.190;2024-03-25T01:05:08;7.07;;;3.97;;
23676;SDS011;31493;49.058;12.190;2024-03-25T01:07:35;7.22;;;3.30;;
23676;SDS011;31493;49.058;12.190;2024-03-25T01:10:01;8.18;;;3.58;;
23676;SDS011;31493;49.058;12.190;2024-03-25T01:12:28;6.93;;;3.83;;
23676;SDS011;31493;49.058;12.190;2024-03-25T01:14:54;9.13;;;3.65;;
23676;SDS011;31493;49.058;12.190;2024-03-25T01:17:22;5.85;;;3.58;;
23676;SDS011;31493;49.058;12.190;2024-03-25T01:19:50;7.28;;;3.38;;
23676;SDS011;31493;49.058;12.190;2024-03-25T01:22:17;8.48;;;3.90;;
23676;SDS011;31493;49.058;12.190;2024-03-25T01:24:43;7.85;;;3.85;;
23676;SDS011;31493;49.058;12.190;2024-03-25T01:27:10;7.88;;;3.72;;
23676;SDS011;31493;49.058;12.190;2024-03-25T01:29:36;5.18;;;3.67;;
23676;SDS011;31493;49.058;12.190;2024-03-25T01:32:04;8.13;;;4.18;;
23676;SDS011;31493;49.058;12.190;2024-03-25T01:34:31;7.32;;;4.00;;
23676;SDS011;31493;49.058;12.190;2024-03-25T01:36:59;6.60;;;3.92;;
23676;SDS011;31493;49.058;12.190;2024-03-25T01:39:25;5.30;;;3.60;;
23676;SDS011;31493;49.058;12.190;2024-03-25T01:41:52;6.50;;;3.67;;
23676;SDS011;31493;49.058;12.190;2024-03-25T01:44:18;8.00;;;3.50;;
23676;SDS011;31493;49.058;12.190;2024-03-25T01:46:45;8.70;;;4.00;;
23676;SDS011;31493;49.058;12.190;2024-03-25T01:49:11;7.57;;;3.83;;
23676;SDS011;31493;49.058;12.190;2024-03-25T01:51:38;6.80;;;4.28;;
23676;SDS011;31493;49.058;12.190;2024-03-25T01:54:07;7.60;;;3.33;;
23676;SDS011;31493;49.058;12.190;2024-03-25T01:56:35;6.78;;;3.58;;
23676;SDS011;31493;49.058;12.190;2024-03-25T01:59:02;9.80;;;3.60;;
23676;SDS011;31493;49.058;12.190;2024-03-25T02:01:30;8.50;;;3.58;;
23676;SDS011;31493;49.058;12.190;2024-03-25T02:03:56;7.38;;;3.85;;
23676;SDS011;31493;49.058;12.190;2024-03-25T02:06:23;7.47;;;3.85;;
23676;SDS011;31493;49.058;12.190;2024-03-25T02:08:52;6.97;;;3.90;;
23676;SDS011;31493;49.058;12.190;2024-03-25T02:13:49;6.57;;;3.40;;
23676;SDS011;31493;49.058;12.190;2024-03-25T02:16:16;8.40;;;3.92;;
23676;SDS011;31493;49.058;12.190;2024-03-25T02:18:42;8.85;;;4.10;;
23676;SDS011;31493;49.058;12.190;2024-03-25T02:21:09;7.72;;;4.40;;
23676;SDS011;31493;49.058;12.190;2024-03-25T02:23:36;6.18;;;3.72;;
23676;SDS011;31493;49.058;12.190;2024-03-25T02:26:06;6.22;;;3.70;;
23676;SDS011;31493;49.058;12.190;2024-03-25T02:28:32;6.97;;;3.80;;
23676;SDS011;31493;49.058;12.190;2024-03-25T02:30:59;8.35;;;4.22;;
23676;SDS011;31493;49.058;12.190;2024-03-25T02:33:25;9.88;;;4.05;;
23676;SDS011;31493;49.058;12.190;2024-03-25T02:35:52;6.30;;;4.03;;
23676;SDS011;31493;49.058;12.190;2024-03-25T02:38:19;5.53;;;3.55;;
23676;SDS011;31493;49.058;12.190;2024-03-25T02:40:46;6.60;;;4.05;;
23676;SDS011;31493;49.058;12.190;2024-03-25T02:43:13;11.07;;;4.00;;
23676;SDS011;31493;49.058;12.190;2024-03-25T02:45:41;6.28;;;3.97;;
23676;SDS011;31493;49.058;12.190;2024-03-25T02:48:07;5.78;;;3.85;;
23676;SDS011;31493;49.058;12.190;2024-03-25T02:50:34;8.75;;;4.07;;
23676;SDS011;31493;49.058;12.190;2024-03-25T02:53:01;6.30;;;4.03;;
23676;SDS011;31493;49.058;12.190;2024-03-25T02:55:28;10.10;;;4.10;;
23676;SDS011;31493;49.058;12.190;2024-03-25T02:57:54;7.45;;;4.28;;
23676;SDS011;31493;49.058;12.190;2024-03-25T03:00:22;8.55;;;4.60;;
23676;SDS011;31493;49.058;12.190;2024-03-25T03:02:48;7.25;;;3.78;;
23676;SDS011;31493;49.058;12.190;2024-03-25T03:05:15;9.40;;;4.60;;
23676;SDS011;31493;49.058;12.190;2024-03-25T03:07:41;6.93;;;4.70;;
23676;SDS011;31493;49.058;12.190;2024-03-25T03:10:09;9.57;;;4.47;;
23676;SDS011;31493;49.058;12.190;2024-03-25T03:12:35;8.35;;;4.47;;
23676;SDS011;31493;49.058;12.190;2024-03-25T03:15:02;8.27;;;4.63;;
23676;SDS011;31493;49.058;12.190;2024-03-25T03:17:30;9.13;;;4.55;;
23676;SDS011;31493;49.058;12.190;2024-03-25T03:19:57;8.60;;;4.10;;
23676;SDS011;31493;49.058;12.190;2024-03-25T03:22:23;10.48;;;4.13;;
23676;SDS011;31493;49.058;12.190;2024-03-25T03:24:50;10.50;;;4.18;;
23676;SDS011;31493;49.058;12.190;2024-03-25T03:27:16;8.52;;;4.53;;
23676;SDS011;31493;49.058;12.190;2024-03-25T03:29:43;10.90;;;4.60;;
23676;SDS011;31493;49.058;12.190;2024-03-25T03:32:09;7.97;;;3.88;;
23676;SDS011;31493;49.058;12.190;2024-03-25T03:34:37;9.07;;;4.10;;
23676;SDS011;31493;49.058;12.190;2024-03-25T03:37:04;8.95;;;4.43;;
23676;SDS011;31493;49.058;12.190;2024-03-25T03:39:31;8.15;;;4.57;;
23676;SDS011;31493;49.058;12.190;2024-03-25T03:41:57;12.48;;;4.72;;
23676;SDS011;31493;49.058;12.190;2024-03-25T03:44:24;8.55;;;4.15;;
23676;SDS011;31493;49.058;12.190;2024-03-25T03:46:50;10.10;;;4.90;;
23676;SDS011;31493;49.058;12.190;2024-03-25T03:49:17;5.78;;;4.30;;
23676;SDS011;31493;49.058;12.190;2024-03-25T03:51:44;8.95;;;4.40;;
23676;SDS011;31493;49.058;12.190;2024-03-25T03:54:11;10.45;;;4.75;;
23676;SDS011;31493;49.058;12.190;2024-03-25T03:56:37;7.72;;;4.70;;
23676;SDS011;31493;49.058;12.190;2024-03-25T03:59:04;8.60;;;4.20;;
23676;SDS011;31493;49.058;12.190;2024-03-25T04:01:30;8.70;;;4.10;;
23676;SDS011;31493;49.058;12.190;2024-03-25T04:03:57;6.28;;;4.43;;
23676;SDS011;31493;49.058;12.190;2024-03-25T04:06:23;7.32;;;4.43;;
23676;SDS011;31493;49.058;12.190;2024-03-25T04:08:51;8.88;;;4.50;;
23676;SDS011;31493;49.058;12.190;2024-03-25T04:11:17;8.20;;;5.15;;
23676;SDS011;31493;49.058;12.190;2024-03-25T04:13:46;7.65;;;4.70;;
23676;SDS011;31493;49.058;12.190;2024-03-25T04:16:12;8.07;;;4.53;;
23676;SDS011;31493;49.058;12.190;2024-03-25T04:18:39;9.38;;;4.57;;
23676;SDS011;31493;49.058;12.190;2024-03-25T04:21:11;6.70;;;4.18;;
23676;SDS011;31493;49.058;12.190;2024-03-25T04:23:38;8.73;;;4.90;;
23676;SDS011;31493;49.058;12.190;2024-03-25T04:26:07;10.90;;;4.70;;
23676;SDS011;31493;49.058;12.190;2024-03-25T04:28:34;15.85;;;4.85;;
23676;SDS011;31493;49.058;12.190;2024-03-25T04:31:01;8.25;;;4.53;;
23676;SDS011;31493;49.058;12.190;2024-03-25T04:33:28;10.50;;;4.53;;
23676;SDS011;31493;49.058;12.190;2024-03-25T04:35:54;9.15;;;4.28;;
23676;SDS011;31493;49.058;12.190;2024-03-25T04:38:21;7.72;;;4.57;;
23676;SDS011;31493;49.058;12.190;2024-03-25T04:40:47;8.68;;;4.25;;
23676;SDS011;31493;49.058;12.190;2024-03-25T04:43:15;10.45;;;4.82;;
23676;SDS011;31493;49.058;12.190;2024-03-25T04:45:41;7.55;;;3.67;;
23676;SDS011;31493;49.058;12.190;2024-03-25T04:48:07;9.75;;;4.82;;
23676;SDS011;31493;49.058;12.190;2024-03-25T04:50:33;12.35;;;5.22;;
23676;SDS011;31493;49.058;12.190;2024-03-25T04:52:59;7.97;;;4.80;;
23676;SDS011;31493;49.058;12.190;2024-03-25T04:55:25;8.45;;;4.95;;
23676;SDS011;31493;49.058;12.190;2024-03-25T04:57:51;8.77;;;5.00;;
23676;SDS011;31493;49.058;12.190;2024-03-25T05:00:19;10.77;;;4.97;;
23676;SDS011;31493;49.058;12.190;2024-03-25T05:02:45;9.73;;;4.88;;
23676;SDS011;31493;49.058;12.190;2024-03-25T05:05:11;13.73;;;5.75;;
23676;SDS011;31493;49.058;12.190;2024-03-25T05:07:37;9.63;;;4.65;;
23676;SDS011;31493;49.058;12.190;2024-03-25T05:10:04;7.07;;;4.50;;
23676;SDS011;31493;49.058;12.190;2024-03-25T05:12:30;9.18;;;4.75;;
23676;SDS011;31493;49.058;12.190;2024-03-25T05:14:57;11.32;;;5.35;;
23676;SDS011;31493;49.058;12.190;2024-03-25T05:17:24;9.98;;;4.47;;
23676;SDS011;31493;49.058;12.190;2024-03-25T05:19:50;9.55;;;4.95;;
23676;SDS011;31493;49.058;12.190;2024-03-25T05:22:16;10.90;;;5.65;;
23676;SDS011;31493;49.058;12.190;2024-03-25T05:24:42;7.43;;;4.85;;
23676;SDS011;31493;49.058;12.190;2024-03-25T05:27:09;9.68;;;4.57;;
23676;SDS011;31493;49.058;12.190;2024-03-25T05:29:35;9.18;;;4.53;;
23676;SDS011;31493;49.058;12.190;2024-03-25T05:32:01;11.43;;;4.93;;
23676;SDS011;31493;49.058;12.190;2024-03-25T05:34:29;8.68;;;5.03;;
23676;SDS011;31493;49.058;12.190;2024-03-25T05:36:55;12.77;;;5.60;;
23676;SDS011;31493;49.058;12.190;2024-03-25T05:39:21;12.40;;;5.63;;
23676;SDS011;31493;49.058;12.190;2024-03-25T05:41:47;8.43;;;5.05;;
23676;SDS011;31493;49.058;12.190;2024-03-25T05:44:14;10.23;;;4.97;;
23676;SDS011;31493;49.058;12.190;2024-03-25T05:46:40;8.30;;;5.35;;
23676;SDS011;31493;49.058;12.190;2024-03-25T05:49:07;7.78;;;4.80;;
23676;SDS011;31493;49.058;12.190;2024-03-25T05:51:34;11.15;;;5.55;;
23676;SDS011;31493;49.058;12.190;2024-03-25T05:54:00;10.93;;;5.22;;
23676;SDS011;31493;49.058;12.190;2024-03-25T05:56:27;8.60;;;5.55;;
23676;SDS011;31493;49.058;12.190;2024-03-25T05:58:53;8.57;;;4.80;;
23676;SDS011;31493;49.058;12.190;2024-03-25T06:01:19;11.30;;;5.10;;
23676;SDS011;31493;49.058;12.190;2024-03-25T06:03:45;11.30;;;5.20;;
23676;SDS011;31493;49.058;12.190;2024-03-25T06:06:11;10.88;;;5.03;;
23676;SDS011;31493;49.058;12.190;2024-03-25T06:08:39;10.13;;;5.63;;
23676;SDS011;31493;49.058;12.190;2024-03-25T06:11:05;11.98;;;5.25;;
23676;SDS011;31493;49.058;12.190;2024-03-25T06:13:31;11.98;;;5.00;;
23676;SDS011;31493;49.058;12.190;2024-03-25T06:15:57;9.82;;;5.10;;
23676;SDS011;31493;49.058;12.190;2024-03-25T06:18:23;11.23;;;5.20;;
23676;SDS011;31493;49.058;12.190;2024-03-25T06:20:49;10.43;;;5.10;;
23676;SDS011;31493;49.058;12.190;2024-03-25T06:23:22;10.43;;;5.40;;
23676;SDS011;31493;49.058;12.190;2024-03-25T06:25:50;13.15;;;5.35;;
23676;SDS011;31493;49.058;12.190;2024-03-25T06:30:44;9.65;;;5.05;;
23676;SDS011;31493;49.058;12.190;2024-03-25T06:33:29;11.13;;;5.32;;
23676;SDS011;31493;49.058;12.190;2024-03-25T06:36:13;10.25;;;5.05;;
23676;SDS011;31493;49.058;12.190;2024-03-25T06:38:39;11.82;;;5.10;;
23676;SDS011;31493;49.058;12.190;2024-03-25T06:41:07;9.70;;;5.35;;
23676;SDS011;31493;49.058;12.190;2024-03-25T06:43:33;9.07;;;5.20;;
23676;SDS011;31493;49.058;12.190;2024-03-25T06:45:59;10.23;;;5.20;;
23676;SDS011;31493;49.058;12.190;2024-03-25T06:48:25;10.85;;;4.95;;
23676;SDS011;31493;49.058;12.190;2024-03-25T06:50:54;10.48;;;4.80;;
23676;SDS011;31493;49.058;12.190;2024-03-25T06:53:21;8.80;;;4.68;;
23676;SDS011;31493;49.058;12.190;2024-03-25T06:55:51;9.18;;;4.88;;
23676;SDS011;31493;49.058;12.190;2024-03-25T06:58:20;9.73;;;4.93;;
23676;SDS011;31493;49.058;12.190;2024-03-25T07:00:46;10.93;;;5.20;;
23676;SDS011;31493;49.058;12.190;2024-03-25T07:03:13;7.18;;;4.38;;
23676;SDS011;31493;49.058;12.190;2024-03-25T07:05:40;7.40;;;4.90;;
23676;SDS011;31493;49.058;12.190;2024-03-25T07:08:06;11.18;;;4.40;;
23676;SDS011;31493;49.058;12.190;2024-03-25T07:10:32;9.88;;;4.88;;
23676;SDS011;31493;49.058;12.190;2024-03-25T07:12:58;11.48;;;4.78;;
23676;SDS011;31493;49.058;12.190;2024-03-25T07:15:25;9.95;;;4.30;;
23676;SDS011;31493;49.058;12.190;2024-03-25T07:17:51;7.88;;;4.70;;
23676;SDS011;31493;49.058;12.190;2024-03-25T07:20:17;9.27;;;4.85;;
23676;SDS011;31493;49.058;12.190;2024-03-25T07:22:44;8.60;;;4.32;;
23676;SDS011;31493;49.058;12.190;2024-03-25T07:25:10;9.20;;;4.30;;
23676;SDS011;31493;49.058;12.190;2024-03-25T07:27:36;6.63;;;4.35;;
23676;SDS011;31493;49.058;12.190;2024-03-25T07:30:02;8.00;;;4.35;;
23676;SDS011;31493;49.058;12.190;2024-03-25T07:32:30;7.40;;;4.20;;
23676;SDS011;31493;49.058;12.190;2024-03-25T07:34:56;7.25;;;3.80;;
23676;SDS011;31493;49.058;12.190;2024-03-25T07:37:22;12.20;;;4.53;;
23676;SDS011;31493;49.058;12.190;2024-03-25T07:39:48;7.82;;;3.80;;
23676;SDS011;31493;49.058;12.190;2024-03-25T07:42:14;10.88;;;3.90;;
23676;SDS011;31493;49.058;12.190;2024-03-25T07:44:40;7.38;;;4.15;;
23676;SDS011;31493;49.058;12.190;2024-03-25T07:47:06;7.03;;;3.58;;
23676;SDS011;31493;49.058;12.190;2024-03-25T07:49:34;7.60;;;3.85;;
23676;SDS011;31493;49.058;12.190;2024-03-25T07:52:00;11.07;;;4.00;;
23676;SDS011;31493;49.058;12.190;2024-03-25T07:54:26;8.80;;;3.72;;
23676;SDS011;31493;49.058;12.190;2024-03-25T07:56:52;6.47;;;3.67;;
23676;SDS011;31493;49.058;12.190;2024-03-25T07:59:18;7.78;;;3.63;;
23676;SDS011;31493;49.058;12.190;2024-03-25T08:01:45;9.68;;;3.92;;
23676;SDS011;31493;49.058;12.190;2024-03-25T08:04:11;6.72;;;3.45;;
23676;SDS011;31493;49.058;12.190;2024-03-25T08:06:38;8.90;;;3.58;;
23676;SDS011;31493;49.058;12.190;2024-03-25T08:09:04;7.28;;;3.55;;
23676;SDS011;31493;49.058;12.190;2024-03-25T08:11:31;5.78;;;3.60;;
23676;SDS011;31493;49.058;12.190;2024-03-25T08:13:57;6.68;;;3.45;;
23676;SDS011;31493;49.058;12.190;2024-03-25T08:16:23;9.05;;;3.40;;
23676;SDS011;31493;49.058;12.190;2024-03-25T08:18:49;6.57;;;3.17;;
23676;SDS011;31493;49.058;12.190;2024-03-25T08:21:15;7.32;;;3.40;;
23676;SDS011;31493;49.058;12.190;2024-03-25T08:23:45;5.57;;;3.42;;
23676;SDS011;31493;49.058;12.190;2024-03-25T08:26:11;7.03;;;3.10;;
23676;SDS011;31493;49.058;12.190;2024-03-25T08:28:37;10.57;;;3.50;;
23676;SDS011;31493;49.058;12.190;2024-03-25T08:31:03;5.32;;;2.92;;
23676;SDS011;31493;49.058;12.190;2024-03-25T08:33:30;8.10;;;2.80;;
23676;SDS011;31493;49.058;12.190;2024-03-25T08:35:56;7.63;;;2.90;;
23676;SDS011;31493;49.058;12.190;2024-03-25T08:38:22;4.43;;;2.45;;
23676;SDS011;31493;49.058;12.190;2024-03-25T08:40:50;5.03;;;2.78;;
23676;SDS011;31493;49.058;12.190;2024-03-25T08:43:16;5.88;;;2.97;;
23676;SDS011;31493;49.058;12.190;2024-03-25T08:45:43;5.03;;;2.78;;
23676;SDS011;31493;49.058;12.190;2024-03-25T08:48:09;6.32;;;3.10;;
23676;SDS011;31493;49.058;12.190;2024-03-25T08:50:35;6.65;;;2.70;;
23676;SDS011;31493;49.058;12.190;2024-03-25T08:53:01;5.78;;;2.78;;
23676;SDS011;31493;49.058;12.190;2024-03-25T08:55:28;9.38;;;2.42;;
23676;SDS011;31493;49.058;12.190;2024-03-25T08:57:55;5.40;;;2.85;;
23676;SDS011;31493;49.058;12.190;2024-03-25T09:00:22;7.25;;;2.70;;
23676;SDS011;31493;49.058;12.190;2024-03-25T09:02:48;5.53;;;2.42;;
23676;SDS011;31493;49.058;12.190;2024-03-25T09:05:14;6.28;;;2.55;;
23676;SDS011;31493;49.058;12.190;2024-03-25T09:07:40;6.72;;;2.90;;
23676;SDS011;31493;49.058;12.190;2024-03-25T09:10:06;6.93;;;2.75;;
23676;SDS011;31493;49.058;12.190;2024-03-25T09:12:51;8.30;;;2.63;;
23676;SDS011;31493;49.058;12.190;2024-03-25T09:15:18;6.20;;;2.17;;
23676;SDS011;31493;49.058;12.190;2024-03-25T09:17:44;7.70;;;2.30;;
23676;SDS011;31493;49.058;12.190;2024-03-25T09:20:11;5.85;;;2.22;;
23676;SDS011;31493;49.058;12.190;2024-03-25T09:22:38;4.90;;;1.67;;
23676;SDS011;31493;49.058;12.190;2024-03-25T09:25:04;4.13;;;1.70;;
23676;SDS011;31493;49.058;12.190;2024-03-25T09:27:31;6.00;;;1.70;;
23676;SDS011;31493;49.058;12.190;2024-03-25T09:29:57;2.53;;;1.75;;
23676;SDS011;31493;49.058;12.190;2024-03-25T09:32:24;6.90;;;2.03;;
23676;SDS011;31493;49.058;12.190;2024-03-25T09:34:50;3.78;;;1.80;;
23676;SDS011;31493;49.058;12.190;2024-03-25T09:37:16;5.28;;;2.00;;
23676;SDS011;31493;49.058;12.190;2024-03-25T09:39:43;3.95;;;1.85;;
23676;SDS011;31493;49.058;12.190;2024-03-25T09:42:09;4.95;;;1.75;;
23676;SDS011;31493;49.058;12.190;2024-03-25T09:44:44;3.35;;;1.70;;
23676;SDS011;31493;49.058;12.190;2024-03-25T09:47:10;4.57;;;1.75;;
23676;SDS011;31493;49.058;12.190;2024-03-25T09:49:38;4.95;;;1.70;;
23676;SDS011;31493;49.058;12.190;2024-03-25T09:52:06;4.22;;;1.70;;
23676;SDS011;31493;49.058;12.190;2024-03-25T09:54:32;4.05;;;1.60;;
23676;SDS011;31493;49.058;12.190;2024-03-25T09:56:59;6.47;;;1.98;;
23676;SDS011;31493;49.058;12.190;2024-03-25T09:59:26;5.60;;;1.73;;
23676;SDS011;31493;49.058;12.190;2024-03-25T10:01:52;4.05;;;1.73;;
23676;SDS011;31493;49.058;12.190;2024-03-25T10:04:19;4.07;;;1.67;;
23676;SDS011;31493;49.058;12.190;2024-03-25T10:06:47;3.70;;;1.75;;
23676;SDS011;31493;49.058;12.190;2024-03-25T10:09:13;4.38;;;1.58;;
23676;SDS011;31493;49.058;12.190;2024-03-25T10:11:46;6.05;;;1.58;;
23676;SDS011;31493;49.058;12.190;2024-03-25T10:16:40;4.40;;;1.73;;
23676;SDS011;31493;49.058;12.190;2024-03-25T10:19:06;8.90;;;1.90;;
23676;SDS011;31493;49.058;12.190;2024-03-25T10:21:33;3.42;;;1.65;;
23676;SDS011;31493;49.058;12.190;2024-03-25T10:24:01;4.97;;;1.60;;
23676;SDS011;31493;49.058;12.190;2024-03-25T10:26:30;4.60;;;1.73;;
23676;SDS011;31493;49.058;12.190;2024-03-25T10:28:58;5.32;;;1.60;;
23676;SDS011;31493;49.058;12.190;2024-03-25T10:31:25;4.00;;;1.60;;
23676;SDS011;31493;49.058;12.190;2024-03-25T10:33:51;3.65;;;1.40;;
23676;SDS011;31493;49.058;12.190;2024-03-25T10:36:18;6.85;;;1.73;;
23676;SDS011;31493;49.058;12.190;2024-03-25T10:38:46;3.13;;;1.40;;
23676;SDS011;31493;49.058;12.190;2024-03-25T10:41:18;5.18;;;1.40;;
23676;SDS011;31493;49.058;12.190;2024-03-25T10:46:11;4.30;;;2.00;;
23676;SDS011;31493;49.058;12.190;2024-03-25T10:48:41;6.03;;;1.88;;
23676;SDS011;31493;49.058;12.190;2024-03-25T10:51:13;5.28;;;1.75;;
23676;SDS011;31493;49.058;12.190;2024-03-25T10:53:40;7.22;;;1.75;;
23676;SDS011;31493;49.058;12.190;2024-03-25T10:56:08;3.75;;;1.60;;
23676;SDS011;31493;49.058;12.190;2024-03-25T10:58:37;7.55;;;1.70;;
23676;SDS011;31493;49.058;12.190;2024-03-25T11:02:37;2.55;;;1.48;;
23676;SDS011;31493;49.058;12.190;2024-03-25T11:05:04;4.18;;;2.05;;
23676;SDS011;31493;49.058;12.190;2024-03-25T11:07:31;6.50;;;2.00;;
23676;SDS011;31493;49.058;12.190;2024-03-25T11:10:04;7.20;;;2.00;;
23676;SDS011;31493;49.058;12.190;2024-03-25T11:12:32;3.78;;;1.73;;
23676;SDS011;31493;49.058;12.190;2024-03-25T11:15:00;5.20;;;1.77;;
23676;SDS011;31493;49.058;12.190;2024-03-25T11:17:27;5.10;;;1.77;;
23676;SDS011;31493;49.058;12.190;2024-03-25T11:19:54;5.10;;;1.58;;
23676;SDS011;31493;49.058;12.190;2024-03-25T11:22:23;5.13;;;1.48;;
23676;SDS011;31493;49.058;12.190;2024-03-25T11:24:50;3.38;;;1.50;;
23676;SDS011;31493;49.058;12.190;2024-03-25T11:27:21;6.28;;;1.75;;
23676;SDS011;31493;49.058;12.190;2024-03-25T11:29:47;2.97;;;1.60;;
23676;SDS011;31493;49.058;12.190;2024-03-25T11:32:13;4.50;;;1.60;;
23676;SDS011;31493;49.058;12.190;2024-03-25T11:34:49;2.65;;;1.52;;
23676;SDS011;31493;49.058;12.190;2024-03-25T11:37:17;3.35;;;1.60;;
23676;SDS011;31493;49.058;12.190;2024-03-25T11:39:43;4.93;;;1.80;;
23676;SDS011;31493;49.058;12.190;2024-03-25T11:42:09;6.78;;;1.80;;
23676;SDS011;31493;49.058;12.190;2024-03-25T11:44:36;3.72;;;1.50;;
23676;SDS011;31493;49.058;12.190;2024-03-25T11:47:03;3.40;;;1.55;;
23676;SDS011;31493;49.058;12.190;2024-03-25T11:49:30;3.22;;;1.80;;
23676;SDS011;31493;49.058;12.190;2024-03-25T11:51:58;4.82;;;1.85;;
23676;SDS011;31493;49.058;12.190;2024-03-25T11:54:27;4.57;;;1.90;;
23676;SDS011;31493;49.058;12.190;2024-03-25T11:56:54;3.08;;;1.73;;
23676;SDS011;31493;49.058;12.190;2024-03-25T11:59:20;3.22;;;1.65;;
23676;SDS011;31493;49.058;12.190;2024-03-25T12:01:46;5.70;;;1.70;;
23676;SDS011;31493;49.058;12.190;2024-03-25T12:04:16;3.42;;;1.73;;
23676;SDS011;31493;49.058;12.190;2024-03-25T12:06:42;3.55;;;2.00;;
23676;SDS011;31493;49.058;12.190;2024-03-25T12:09:09;2.83;;;1.63;;
23676;SDS011;31493;49.058;12.190;2024-03-25T12:11:56;5.03;;;1.90;;
23676;SDS011;31493;49.058;12.190;2024-03-25T12:14:22;5.03;;;2.00;;
23676;SDS011;31493;49.058;12.190;2024-03-25T12:16:48;3.03;;;1.83;;
23676;SDS011;31493;49.058;12.190;2024-03-25T12:19:15;4.55;;;2.00;;
23676;SDS011;31493;49.058;12.190;2024-03-25T12:21:41;4.13;;;1.92;;
23676;SDS011;31493;49.058;12.190;2024-03-25T12:24:07;3.45;;;1.90;;
23676;SDS011;31493;49.058;12.190;2024-03-25T12:26:34;3.35;;;1.98;;
23676;SDS011;31493;49.058;12.190;2024-03-25T12:29:01;2.80;;;1.90;;
23676;SDS011;31493;49.058;12.190;2024-03-25T12:31:27;4.70;;;2.05;;
23676;SDS011;31493;49.058;12.190;2024-03-25T12:33:54;3.70;;;2.13;;
23676;SDS011;31493;49.058;12.190;2024-03-25T12:36:20;6.18;;;1.77;;
23676;SDS011;31493;49.058;12.190;2024-03-25T12:38:53;6.07;;;2.58;;
23676;SDS011;31493;49.058;12.190;2024-03-25T12:41:21;4.60;;;2.15;;
23676;SDS011;31493;49.058;12.190;2024-03-25T12:43:49;3.08;;;1.83;;
23676;SDS011;31493;49.058;12.190;2024-03-25T12:46:17;3.45;;;2.03;;
23676;SDS011;31493;49.058;12.190;2024-03-25T12:48:43;2.75;;;1.77;;
23676;SDS011;31493;49.058;12.190;2024-03-25T12:51:11;3.05;;;1.85;;
23676;SDS011;31493;49.058;12.190;2024-03-25T12:53:38;5.15;;;1.92;;
23676;SDS011;31493;49.058;12.190;2024-03-25T12:56:05;3.53;;;2.08;;
23676;SDS011;31493;49.058;12.190;2024-03-25T12:58:31;5.68;;;2.00;;
23676;SDS011;31493;49.058;12.190;2024-03-25T13:00:57;5.22;;;2.17;;
23676;SDS011;31493;49.058;12.190;2024-03-25T13:03:25;3.63;;;1.60;;
23676;SDS011;31493;49.058;12.190;2024-03-25T13:05:51;5.18;;;1.77;;
23676;SDS011;31493;49.058;12.190;2024-03-25T13:08:17;4.25;;;1.98;;
23676;SDS011;31493;49.058;12.190;2024-03-25T13:10:43;3.75;;;2.00;;
23676;SDS011;31493;49.058;12.190;2024-03-25T13:13:09;3.03;;;1.75;;
23676;SDS011;31493;49.058;12.190;2024-03-25T13:15:36;4.15;;;1.70;;
23676;SDS011;31493;49.058;12.190;2024-03-25T13:18:02;5.22;;;1.80;;
23676;SDS011;31493;49.058;12.190;2024-03-25T13:20:31;5.88;;;1.90;;
23676;SDS011;31493;49.058;12.190;2024-03-25T13:22:58;2.75;;;1.65;;
23676;SDS011;31493;49.058;12.190;2024-03-25T13:25:24;6.20;;;1.80;;
23676;SDS011;31493;49.058;12.190;2024-03-25T13:27:50;4.75;;;1.88;;
23676;SDS011;31493;49.058;12.190;2024-03-25T13:30:16;5.75;;;1.88;;
23676;SDS011;31493;49.058;12.190;2024-03-25T13:32:42;3.92;;;1.90;;
23676;SDS011;31493;49.058;12.190;2024-03-25T13:35:08;4.32;;;2.10;;
23676;SDS011;31493;49.058;12.190;2024-03-25T13:37:36;4.05;;;1.90;;
23676;SDS011;31493;49.058;12.190;2024-03-25T13:40:02;4.32;;;1.95;;
23676;SDS011;31493;49.058;12.190;2024-03-25T13:42:29;4.70;;;1.85;;
23676;SDS011;31493;49.058;12.190;2024-03-25T13:44:55;3.97;;;1.83;;
23676;SDS011;31493;49.058;12.190;2024-03-25T13:47:21;4.07;;;2.00;;
23676;SDS011;31493;49.058;12.190;2024-03-25T13:49:47;3.33;;;1.83;;
23676;SDS011;31493;49.058;12.190;2024-03-25T13:52:13;4.07;;;1.80;;
23676;SDS011;31493;49.058;12.190;2024-03-25T13:54:40;3.45;;;1.75;;
23676;SDS011;31493;49.058;12.190;2024-03-25T13:57:06;4.78;;;2.17;;
23676;SDS011;31493;49.058;12.190;2024-03-25T13:59:32;2.83;;;1.80;;
23676;SDS011;31493;49.058;12.190;2024-03-25T14:01:58;3.65;;;2.00;;
23676;SDS011;31493;49.058;12.190;2024-03-25T14:04:24;4.85;;;2.20;;
23676;SDS011;31493;49.058;12.190;2024-03-25T14:06:50;5.40;;;1.70;;
23676;SDS011;31493;49.058;12.190;2024-03-25T14:09:23;5.60;;;1.98;;
23676;SDS011;31493;49.058;12.190;2024-03-25T14:11:51;4.05;;;2.20;;
23676;SDS011;31493;49.058;12.190;2024-03-25T14:14:17;3.38;;;1.92;;
23676;SDS011;31493;49.058;12.190;2024-03-25T14:16:43;4.40;;;1.67;;
23676;SDS011;31493;49.058;12.190;2024-03-25T14:19:09;5.82;;;2.00;;
23676;SDS011;31493;49.058;12.190;2024-03-25T14:21:36;4.60;;;2.20;;
23676;SDS011;31493;49.058;12.190;2024-03-25T14:24:04;4.32;;;2.00;;
23676;SDS011;31493;49.058;12.190;2024-03-25T14:26:30;2.83;;;1.65;;
23676;SDS011;31493;49.058;12.190;2024-03-25T14:28:58;3.17;;;1.90;;
23676;SDS011;31493;49.058;12.190;2024-03-25T14:31:24;3.72;;;2.10;;
23676;SDS011;31493;49.058;12.190;2024-03-25T14:33:50;4.00;;;1.83;;
23676;SDS011;31493;49.058;12.190;2024-03-25T15:36:24;4.13;;;2.28;;
23676;SDS011;31493;49.058;12.190;2024-03-25T15:38:51;4.22;;;2.33;;
23676;SDS011;31493;49.058;12.190;2024-03-25T15:41:17;4.53;;;2.40;;
23676;SDS011;31493;49.058;12.190;2024-03-25T15:43:43;3.90;;;2.17;;